Time;durP1;ratioP1;P1;durP2;ratioP2;P2;SDS_P1;SDS_P2;PMS_P1;PMS_P2;Temp;Humidity;BMP_temperature;BMP_pressure;BME280_temperature;BME280_humidity;BME280_pressure;Samples;Min_cycle;Max_cycle;Signal;HPM_P1;HPM_P2
2021/04/01 00:02:13;;;;;;;5.40;4.87;;;14.00;61.30;;;;;;10534366;28;20270;-77
2021/04/01 00:07:15;;;;;;;7.13;4.73;;;13.90;61.60;;;;;;10534490;28;20234;-77
2021/04/01 00:12:17;;;;;;;5.90;4.53;;;13.90;61.50;;;;;;10517739;28;20703;-77
2021/04/01 00:17:19;;;;;;;8.07;6.13;;;13.90;60.80;;;;;;10535664;28;20192;-77
2021/04/01 00:22:22;;;;;;;5.03;4.53;;;13.80;61.10;;;;;;10517601;28;20565;-76
2021/04/01 00:27:23;;;;;;;9.53;6.20;;;13.80;62.40;;;;;;10540405;28;20648;-77
2021/04/01 00:32:25;;;;;;;8.03;5.03;;;13.70;61.40;;;;;;10525773;28;20211;-77
2021/04/01 00:37:27;;;;;;;7.73;4.27;;;13.70;61.50;;;;;;10542869;28;20196;-76
2021/04/01 00:42:29;;;;;;;5.83;5.23;;;13.70;62.60;;;;;;10524722;28;20207;-77
2021/04/01 00:47:35;;;;;;;7.63;5.17;;;13.70;61.50;;;;;;10542365;28;20188;-76
2021/04/01 00:52:38;;;;;;;6.57;5.83;;;13.60;62.00;;;;;;10542398;28;20826;-76
2021/04/01 00:57:41;;;;;;;7.10;5.80;;;13.50;62.30;;;;;;10541647;28;20302;-77
2021/04/01 01:02:43;;;;;;;6.10;5.50;;;13.50;62.50;;;;;;10532511;28;20203;-77
2021/04/01 01:07:46;;;;;;;7.07;5.90;;;13.50;62.30;;;;;;10539684;28;20211;-77
2021/04/01 01:12:48;;;;;;;7.77;6.40;;;13.40;62.90;;;;;;10540916;28;20195;-77
2021/04/01 01:17:50;;;;;;;7.13;5.83;;;13.40;63.10;;;;;;10540279;28;20215;-76
2021/04/01 01:22:53;;;;;;;7.83;5.93;;;13.30;63.40;;;;;;10540474;28;20200;-76
2021/04/01 01:27:55;;;;;;;7.53;6.20;;;13.20;63.10;;;;;;10539505;28;20290;-77
2021/04/01 01:32:59;;;;;;;11.27;6.80;;;13.20;63.60;;;;;;10540084;28;20245;-76
2021/04/01 01:38:03;;;;;;;7.70;6.10;;;13.10;63.40;;;;;;10539990;28;20211;-77
2021/04/01 01:43:07;;;;;;;7.83;5.57;;;13.10;64.20;;;;;;10540095;28;20695;-76
2021/04/01 01:48:10;;;;;;;7.53;5.20;;;13.10;64.00;;;;;;10518600;28;20204;-77
2021/04/01 01:53:11;;;;;;;6.37;5.63;;;13.10;63.80;;;;;;10520741;28;20192;-77
2021/04/01 01:58:14;;;;;;;8.10;6.40;;;13.10;64.30;;;;;;10538616;28;20767;-76
2021/04/01 02:03:17;;;;;;;7.90;6.33;;;13.00;64.20;;;;;;10518929;28;20285;-77
2021/04/01 02:08:19;;;;;;;8.60;5.83;;;13.00;64.10;;;;;;10519606;28;20219;-77
2021/04/01 02:13:23;;;;;;;6.40;5.70;;;13.00;64.30;;;;;;10538357;28;20245;-76
2021/04/01 02:18:26;;;;;;;6.23;5.60;;;12.90;64.70;;;;;;10537427;28;20215;-77
2021/04/01 02:23:33;;;;;;;6.80;6.03;;;12.90;64.20;;;;;;10535750;28;20233;-77
2021/04/01 02:28:36;;;;;;;9.80;6.77;;;12.90;64.40;;;;;;10536973;28;20223;-77
2021/04/01 02:33:39;;;;;;;7.57;5.70;;;12.80;64.90;;;;;;10519237;28;20187;-77
2021/04/01 02:38:41;;;;;;;6.37;5.70;;;12.80;65.00;;;;;;10537784;28;20215;-77
2021/04/01 02:43:44;;;;;;;7.43;5.70;;;12.80;65.40;;;;;;10520527;28;20230;-77
2021/04/01 02:48:45;;;;;;;7.00;5.90;;;12.70;65.90;;;;;;10534871;28;20211;-77
2021/04/01 02:53:47;;;;;;;8.37;6.50;;;12.70;65.60;;;;;;10537881;28;20649;-77
2021/04/01 02:58:49;;;;;;;7.60;5.97;;;12.70;65.30;;;;;;10537588;28;20703;-77
2021/04/01 03:03:55;;;;;;;11.83;6.17;;;12.60;65.90;;;;;;10518101;28;20204;-77
2021/04/01 03:08:56;;;;;;;10.40;7.07;;;12.60;65.80;;;;;;10537328;28;20571;-76
2021/04/01 03:13:59;;;;;;;6.70;6.07;;;12.60;66.00;;;;;;10536858;28;20681;-77
2021/04/01 03:19:00;;;;;;;7.53;5.67;;;12.50;66.20;;;;;;10536354;28;20216;-77
2021/04/01 03:24:02;;;;;;;7.87;5.87;;;12.50;66.30;;;;;;10536237;28;20328;-77
2021/04/01 03:29:05;;;;;;;6.03;5.43;;;12.40;66.30;;;;;;10536127;28;20279;-77
2021/04/01 03:34:06;;;;;;;7.30;6.57;;;12.40;67.30;;;;;;10530251;28;20191;-77
2021/04/01 03:39:08;;;;;;;5.87;5.33;;;12.40;66.90;;;;;;10534111;28;20298;-77
2021/04/01 03:44:11;;;;;;;8.00;6.17;;;12.40;66.90;;;;;;10518699;28;20241;-76
2021/04/01 03:49:12;;;;;;;7.83;5.70;;;12.30;67.00;;;;;;10533742;28;20293;-77
2021/04/01 03:54:14;;;;;;;13.80;6.47;;;12.20;67.30;;;;;;10533174;28;20213;-76
2021/04/01 03:59:19;;;;;;;7.90;6.77;;;12.20;67.60;;;;;;10533849;28;20264;-76
2021/04/01 04:04:38;;;;;;;9.63;6.37;;;12.20;68.20;;;;;;10541807;28;20204;-77
2021/04/01 04:15:09;;;;;;;8.00;6.07;;;12.20;68.20;;;;;;10467860;28;20211;-77
2021/04/01 04:20:13;;;;;;;7.83;6.60;;;12.10;68.40;;;;;;10541324;28;20212;-77
2021/04/01 04:25:15;;;;;;;11.60;6.40;;;12.10;68.40;;;;;;10524692;28;20252;-76
2021/04/01 04:30:19;;;;;;;7.63;6.30;;;12.10;68.60;;;;;;10544015;28;20208;-76
2021/04/01 04:35:20;;;;;;;10.40;7.33;;;12.00;68.40;;;;;;10543495;28;20322;-77
2021/04/01 04:40:22;;;;;;;10.10;7.03;;;12.00;68.30;;;;;;10542310;28;20298;-77
2021/04/01 04:45:25;;;;;;;9.00;6.97;;;12.00;68.60;;;;;;10518797;28;20287;-76
2021/04/01 04:50:27;;;;;;;12.77;6.40;;;12.00;69.10;;;;;;10538296;28;20303;-76
2021/04/01 04:55:29;;;;;;;10.40;6.83;;;11.90;68.80;;;;;;10537311;28;20227;-76
2021/04/01 05:05:50;;;;;;;11.67;6.60;;;11.90;68.90;;;;;;10506130;28;20261;-76
2021/04/01 05:10:52;;;;;;;9.83;7.40;;;11.90;69.40;;;;;;10539003;28;20234;-76
2021/04/01 05:15:55;;;;;;;8.00;6.60;;;11.80;69.50;;;;;;10539331;28;20608;-75
2021/04/01 05:20:58;;;;;;;9.00;7.17;;;11.90;69.60;;;;;;10521731;28;20220;-76
2021/04/01 05:31:23;;;;;;;9.63;7.37;;;11.90;70.00;;;;;;10540657;28;20219;-75
2021/04/01 05:36:26;;;;;;;10.77;7.93;;;12.00;69.90;;;;;;10539984;28;20222;-76
2021/04/01 05:41:29;;;;;;;10.50;7.67;;;12.00;69.40;;;;;;10516491;28;20566;-77
2021/04/01 05:46:37;;;;;;;10.97;7.93;;;12.10;69.60;;;;;;10536328;28;20192;-76
2021/04/01 05:57:27;;;;;;;10.90;6.90;;;12.30;69.20;;;;;;10501215;28;20187;-75
2021/04/01 06:02:45;;;;;;;9.20;7.20;;;12.40;69.30;;;;;;10517639;28;20588;-77
2021/04/01 06:07:48;;;;;;;8.20;7.30;;;12.70;69.40;;;;;;10537234;28;20218;-77
2021/04/01 06:12:50;;;;;;;9.13;8.23;;;12.80;68.80;;;;;;10530117;28;20223;-77
2021/04/01 06:17:57;;;;;;;12.37;9.90;;;12.90;67.50;;;;;;10532622;28;20306;-75
2021/04/01 06:23:03;;;;;;;8.80;7.90;;;13.00;68.30;;;;;;10534558;28;20188;-76
2021/04/01 06:28:12;;;;;;;11.97;7.60;;;13.10;68.60;;;;;;10495031;28;20239;-77
2021/04/01 06:33:20;;;;;;;12.50;7.70;;;13.10;69.20;;;;;;10509932;28;20195;-75
2021/04/01 06:38:31;;;;;;;10.90;6.80;;;13.20;69.10;;;;;;10536800;28;20318;-77
2021/04/01 06:43:48;;;;;;;9.87;7.37;;;13.20;69.60;;;;;;10513896;28;20231;-76
2021/04/01 06:54:23;;;;;;;11.63;8.00;;;13.50;69.60;;;;;;10440845;28;20257;-77
2021/04/01 06:59:39;;;;;;;17.23;7.20;;;13.70;69.70;;;;;;10531398;28;20219;-77
2021/04/01 07:04:42;;;;;;;14.10;7.40;;;13.90;70.50;;;;;;10519101;28;20199;-77
2021/04/01 07:10:02;;;;;;;13.30;7.97;;;14.10;69.20;;;;;;10536314;28;20265;-77
2021/04/01 07:15:12;;;;;;;11.93;8.57;;;14.20;68.90;;;;;;10500536;28;20199;-75
2021/04/01 07:47:29;;;;;;;10.47;7.70;;;14.30;72.80;;;;;;10514772;28;20286;-76
2021/04/01 07:52:32;;;;;;;11.53;8.07;;;14.40;71.30;;;;;;10507771;28;20695;-77
2021/04/01 08:03:22;;;;;;;10.30;8.40;;;14.90;72.50;;;;;;10506337;28;20198;-77
2021/04/01 08:08:25;;;;;;;10.40;8.73;;;15.40;70.00;;;;;;10530277;28;20560;-77
2021/04/01 08:13:32;;;;;;;10.73;8.03;;;15.70;68.90;;;;;;10534431;28;20207;-76
2021/04/01 08:18:35;;;;;;;14.97;8.70;;;16.20;68.20;;;;;;10516080;28;20679;-77
2021/04/01 08:23:44;;;;;;;11.50;7.63;;;16.50;66.20;;;;;;10530997;28;20200;-77
2021/04/01 08:29:14;;;;;;;9.60;8.43;;;16.70;65.90;;;;;;10532723;28;20211;-77
2021/04/01 08:34:19;;;;;;;11.13;8.20;;;16.80;66.00;;;;;;10531003;28;20200;-77
2021/04/01 08:39:23;;;;;;;12.70;8.10;;;16.80;65.30;;;;;;10558301;22;20315;-75
2021/04/01 08:45:02;;;;;;;9.43;7.63;;;17.00;65.80;;;;;;10533333;28;20192;-76
2021/04/01 08:50:18;;;;;;;8.33;7.23;;;17.20;66.60;;;;;;10521898;28;20239;-76
2021/04/01 08:55:31;;;;;;;12.43;7.00;;;17.70;64.60;;;;;;10540718;28;20228;-76
2021/04/01 09:00:34;;;;;;;12.77;7.67;;;18.00;64.40;;;;;;10539705;28;20200;-75
2021/04/01 09:05:36;;;;;;;8.13;7.00;;;18.10;64.70;;;;;;10539782;28;20184;-76
2021/04/01 09:10:52;;;;;;;8.77;7.80;;;18.20;65.50;;;;;;10539460;28;20698;-75
2021/04/01 09:15:58;;;;;;;7.20;6.50;;;18.50;65.30;;;;;;10503653;28;20191;-76
2021/04/01 09:21:02;;;;;;;6.47;5.53;;;18.90;63.10;;;;;;10520466;28;20216;-75
2021/04/01 09:26:07;;;;;;;6.27;5.30;;;19.30;62.80;;;;;;10534474;28;20721;-75
2021/04/01 09:31:10;;;;;;;5.03;4.53;;;19.50;59.90;;;;;;10482085;28;20271;-76
2021/04/01 09:36:16;;;;;;;6.93;5.30;;;19.50;59.70;;;;;;10482080;28;20193;-76
2021/04/01 09:41:27;;;;;;;5.00;4.50;;;19.60;58.60;;;;;;10462190;28;20243;-76
2021/04/01 09:46:30;;;;;;;8.70;5.33;;;19.70;59.80;;;;;;10478419;28;20204;-76
2021/04/01 09:51:33;;;;;;;8.70;5.97;;;19.70;59.80;;;;;;10497031;28;20220;-76
2021/04/01 09:56:36;;;;;;;7.00;5.07;;;19.80;59.60;;;;;;10496189;28;20189;-75
2021/04/01 10:01:39;;;;;;;8.57;6.37;;;19.80;59.20;;;;;;10478588;28;20342;-75
2021/04/01 10:06:43;;;;;;;8.03;5.90;;;20.00;59.30;;;;;;10495738;28;20246;-75
2021/04/01 10:11:49;;;;;;;6.13;5.13;;;20.10;59.90;;;;;;10477929;28;20227;-76
2021/04/01 10:16:54;;;;;;;9.40;5.60;;;20.10;58.70;;;;;;10523638;28;20257;-76
2021/04/01 10:21:56;;;;;;;7.00;6.30;;;19.90;59.20;;;;;;10495778;28;20216;-75
2021/04/01 10:27:08;;;;;;;5.83;5.33;;;19.70;58.40;;;;;;10497821;28;20206;-76
2021/04/01 10:32:10;;;;;;;6.33;5.60;;;19.60;58.50;;;;;;10522081;28;20240;-75
2021/04/01 10:37:14;;;;;;;5.60;4.17;;;19.60;58.50;;;;;;10495967;28;20191;-75
2021/04/01 10:42:25;;;;;;;9.60;4.40;;;19.50;59.30;;;;;;10514031;28;20218;-75
2021/04/01 10:47:43;;;;;;;5.90;5.00;;;19.40;61.20;;;;;;10495360;28;20200;-76
2021/04/01 10:52:44;;;;;;;4.47;4.07;;;19.20;60.60;;;;;;10514740;28;20250;-75
2021/04/01 10:57:47;;;;;;;6.50;4.10;;;19.20;59.40;;;;;;10512297;28;20270;-76
2021/04/01 11:02:50;;;;;;;4.80;4.00;;;19.30;60.00;;;;;;10512343;28;20288;-75
2021/04/01 11:08:00;;;;;;;4.40;3.77;;;19.30;60.10;;;;;;10495638;28;20222;-75
2021/04/01 11:13:05;;;;;;;4.40;3.93;;;19.30;60.40;;;;;;10515448;28;20248;-75
2021/04/01 11:18:10;;;;;;;7.33;4.67;;;19.40;59.10;;;;;;10499729;28;20259;-75
2021/04/01 11:23:15;;;;;;;8.00;4.07;;;19.60;58.40;;;;;;10512059;28;20279;-76
2021/04/01 11:28:18;;;;;;;4.27;3.70;;;19.90;58.40;;;;;;10494621;28;20690;-75
2021/04/01 11:33:24;;;;;;;3.17;2.87;;;20.00;58.20;;;;;;10500278;28;20222;-75
2021/04/01 11:38:26;;;;;;;3.53;3.23;;;20.00;58.50;;;;;;10547819;28;20228;-76
2021/04/01 11:43:31;;;;;;;3.80;3.30;;;19.90;59.80;;;;;;10569982;28;20192;-76
2021/04/01 11:48:33;;;;;;;5.90;3.90;;;19.80;58.40;;;;;;10576232;28;20298;-76
2021/04/01 11:53:36;;;;;;;4.90;3.80;;;19.70;58.60;;;;;;10523272;28;20200;-75
2021/04/01 11:58:39;;;;;;;4.50;3.90;;;19.70;59.30;;;;;;10515781;28;20222;-76
2021/04/01 12:03:51;;;;;;;4.33;2.90;;;19.60;59.00;;;;;;10533431;28;20638;-75
2021/04/01 12:08:53;;;;;;;5.80;3.87;;;19.70;58.30;;;;;;10534143;28;20603;-75
2021/04/01 12:14:07;;;;;;;3.03;2.83;;;19.70;58.10;;;;;;10515750;28;20567;-76
2021/04/01 12:19:10;;;;;;;3.77;3.37;;;19.90;58.30;;;;;;10533533;28;20295;-75
2021/04/01 12:24:12;;;;;;;3.83;3.53;;;20.00;57.80;;;;;;10523063;28;20216;-75
2021/04/01 12:29:14;;;;;;;4.33;3.80;;;20.00;56.90;;;;;;10534242;28;20267;-76
2021/04/01 12:34:23;;;;;;;3.50;3.30;;;20.10;58.10;;;;;;10583573;28;20187;-76
2021/04/01 12:39:29;;;;;;;4.13;3.60;;;20.00;57.80;;;;;;10582988;28;20222;-76
2021/04/01 12:44:36;;;;;;;3.43;3.23;;;20.00;58.20;;;;;;10564896;28;20232;-75
2021/04/01 12:49:38;;;;;;;4.40;3.27;;;20.00;57.10;;;;;;10582632;28;20303;-76
2021/04/01 12:54:42;;;;;;;4.50;3.70;;;20.10;57.10;;;;;;10532345;28;20210;-76
2021/04/01 12:59:50;;;;;;;2.90;2.60;;;20.20;56.90;;;;;;10540544;28;20221;-76
2021/04/01 13:04:55;;;;;;;3.73;3.47;;;20.40;56.50;;;;;;10540369;28;20191;-76
2021/04/01 13:10:10;;;;;;;4.43;3.90;;;20.80;55.70;;;;;;10520214;28;20220;-75
2021/04/01 13:15:14;;;;;;;4.93;3.37;;;21.20;54.70;;;;;;10534517;28;20204;-76
2021/04/01 13:20:16;;;;;;;3.43;3.13;;;21.60;53.30;;;;;;10511132;28;20234;-77
2021/04/01 13:25:17;;;;;;;4.33;3.30;;;21.80;52.80;;;;;;10536609;28;20201;-77
2021/04/01 13:30:22;;;;;;;3.27;3.07;;;21.90;51.90;;;;;;10514502;28;20702;-75
2021/04/01 13:35:31;;;;;;;4.40;4.00;;;22.00;52.30;;;;;;10536730;28;20579;-76
2021/04/01 13:40:37;;;;;;;4.10;3.80;;;22.10;53.00;;;;;;10519475;28;20361;-76
2021/04/01 13:45:40;;;;;;;3.83;3.47;;;22.10;53.10;;;;;;10535370;28;20203;-76
2021/04/01 13:50:48;;;;;;;3.73;3.50;;;22.20;52.50;;;;;;10519146;28;20310;-76
2021/04/01 13:55:52;;;;;;;4.50;4.10;;;22.10;52.00;;;;;;10534656;28;20202;-75
2021/04/01 14:01:15;;;;;;;3.23;3.03;;;22.20;51.20;;;;;;10511535;28;20230;-76
2021/04/01 14:11:41;;;;;;;3.80;3.50;;;22.10;51.40;;;;;;10517137;28;20212;-76
2021/04/01 14:16:43;;;;;;;4.40;4.10;;;22.10;52.30;;;;;;10516742;28;20240;-76
2021/04/01 14:21:46;;;;;;;4.13;3.70;;;22.10;51.50;;;;;;10516828;28;20216;-76
2021/04/01 14:26:51;;;;;;;5.70;3.80;;;22.10;51.60;;;;;;10536426;28;20203;-76
2021/04/01 14:31:53;;;;;;;5.00;3.90;;;21.90;52.10;;;;;;10536308;28;20224;-76
2021/04/01 14:36:56;;;;;;;7.23;4.30;;;21.80;52.40;;;;;;10538270;28;20253;-76
2021/04/01 14:42:01;;;;;;;6.20;5.13;;;21.70;52.70;;;;;;10518338;28;20227;-77
2021/04/01 14:47:06;;;;;;;5.53;4.50;;;21.80;52.00;;;;;;10535695;28;20241;-77
2021/04/01 14:52:08;;;;;;;6.40;4.30;;;21.70;52.20;;;;;;10512107;28;20211;-77
2021/04/01 14:57:11;;;;;;;4.60;4.20;;;21.70;50.60;;;;;;10517008;28;20203;-77
2021/04/01 15:02:16;;;;;;;4.33;3.70;;;21.70;50.30;;;;;;10515937;28;20226;-77
2021/04/01 15:07:23;;;;;;;5.73;3.83;;;21.50;49.90;;;;;;10517207;28;20296;-76
2021/04/01 15:12:24;;;;;;;3.73;3.30;;;21.40;50.20;;;;;;10494652;28;20303;-77
2021/04/01 15:17:28;;;;;;;3.50;3.17;;;21.40;49.90;;;;;;10513085;28;20195;-76
2021/04/01 15:22:29;;;;;;;5.60;4.50;;;21.40;50.10;;;;;;10511188;28;20212;-77
2021/04/01 15:27:31;;;;;;;6.73;3.70;;;21.30;50.50;;;;;;10517629;28;20272;-78
2021/04/01 15:32:34;;;;;;;5.13;3.47;;;21.30;50.70;;;;;;10503307;28;20251;-77
2021/04/01 15:37:36;;;;;;;5.77;4.10;;;21.20;51.40;;;;;;10489564;28;20254;-77
2021/04/01 15:42:38;;;;;;;5.80;4.70;;;21.20;52.20;;;;;;10498228;28;20753;-77
2021/04/01 15:47:41;;;;;;;4.90;4.40;;;21.20;52.20;;;;;;10478450;28;20259;-78
2021/04/01 15:52:43;;;;;;;5.03;4.60;;;21.10;52.20;;;;;;10475683;28;20220;-77
2021/04/01 15:57:45;;;;;;;4.53;4.13;;;21.10;51.90;;;;;;10500792;28;20601;-76
2021/04/01 16:02:48;;;;;;;8.20;4.47;;;21.00;52.30;;;;;;10505986;28;20276;-78
2021/04/01 16:07:51;;;;;;;6.63;5.93;;;21.00;51.70;;;;;;10503726;28;20284;-78
2021/04/01 16:12:56;;;;;;;8.17;6.77;;;20.90;51.60;;;;;;10485365;28;20220;-77
2021/04/01 16:18:00;;;;;;;10.17;7.53;;;20.70;51.30;;;;;;10485980;28;20671;-76
2021/04/01 16:23:02;;;;;;;6.43;5.47;;;20.60;51.00;;;;;;10502980;28;20192;-76
2021/04/01 16:28:04;;;;;;;12.67;7.27;;;20.50;52.50;;;;;;10500738;28;20691;-77
2021/04/01 16:33:10;;;;;;;8.90;7.50;;;20.30;53.00;;;;;;10482696;28;20353;-77
2021/04/01 16:38:11;;;;;;;15.43;8.47;;;20.20;52.60;;;;;;10500125;28;20300;-77
2021/04/01 16:43:13;;;;;;;10.00;7.93;;;20.10;52.70;;;;;;10465296;28;20657;-77
2021/04/01 16:48:16;;;;;;;12.20;8.70;;;20.00;53.40;;;;;;10499768;28;20216;-77
2021/04/01 16:53:20;;;;;;;14.30;10.40;;;19.90;53.90;;;;;;10481568;28;20291;-77
2021/04/01 16:58:24;;;;;;;17.97;10.93;;;19.80;54.40;;;;;;10481577;28;20711;-78
2021/04/01 17:03:29;;;;;;;15.10;10.70;;;19.70;53.80;;;;;;10481636;28;20700;-77
2021/04/01 17:08:31;;;;;;;20.67;11.83;;;19.70;53.80;;;;;;10481190;28;20232;-78
2021/04/01 17:13:32;;;;;;;17.17;11.43;;;19.60;54.60;;;;;;10499166;28;20220;-75
2021/04/01 17:18:36;;;;;;;18.10;11.60;;;19.50;53.40;;;;;;10499094;28;20345;-77
2021/04/01 17:23:38;;;;;;;16.70;10.60;;;19.40;53.90;;;;;;10499011;28;20312;-77
2021/04/01 17:28:40;;;;;;;19.77;11.90;;;19.30;53.00;;;;;;10480566;28;20213;-76
2021/04/01 17:33:43;;;;;;;19.43;11.30;;;19.20;52.60;;;;;;10480267;28;20212;-76
2021/04/01 17:38:44;;;;;;;16.73;11.17;;;19.10;55.10;;;;;;10498236;28;20216;-78
2021/04/01 17:43:46;;;;;;;16.93;10.67;;;18.90;55.30;;;;;;10505637;28;20215;-77
2021/04/01 17:48:48;;;;;;;15.77;10.97;;;18.80;56.60;;;;;;10479171;28;20243;-77
2021/04/01 17:53:50;;;;;;;14.23;10.50;;;18.60;58.40;;;;;;10461546;28;20221;-77
2021/04/01 17:58:54;;;;;;;17.47;11.50;;;18.40;60.00;;;;;;10499868;28;20299;-76
2021/04/01 18:04:11;;;;;;;15.00;11.87;;;18.20;59.30;;;;;;10483771;28;20651;-77
2021/04/01 18:25:16;;;;;;;20.13;14.73;;;18.00;57.70;;;;;;10465884;28;20222;-76
2021/04/01 18:30:20;;;;;;;21.73;18.23;;;18.00;58.20;;;;;;10477772;28;20266;-77
2021/04/01 18:35:27;;;;;;;17.40;14.50;;;17.90;58.50;;;;;;10478641;28;20200;-77
2021/04/01 18:40:33;;;;;;;13.03;10.10;;;17.80;58.50;;;;;;10496276;28;20212;-78
2021/04/01 18:45:39;;;;;;;15.27;10.33;;;17.70;58.90;;;;;;10494222;28;20208;-76
2021/04/01 18:50:43;;;;;;;15.30;10.80;;;17.60;58.80;;;;;;10497513;28;20215;-77
2021/04/01 19:01:13;;;;;;;17.10;12.40;;;17.30;59.30;;;;;;10473428;28;20236;-78
2021/04/01 19:06:19;;;;;;;21.70;18.70;;;17.20;59.40;;;;;;10498402;28;20196;-77
2021/04/01 19:27:19;;;;;;;15.37;11.00;;;16.90;59.90;;;;;;10478758;28;20581;-76
2021/04/01 19:32:25;;;;;;;20.33;13.53;;;16.80;59.90;;;;;;10466662;28;20788;-77
2021/04/01 19:37:28;;;;;;;19.90;13.27;;;16.70;59.70;;;;;;10516865;28;20192;-76
2021/04/01 19:42:32;;;;;;;16.50;10.23;;;16.60;59.70;;;;;;10538925;28;20294;-77
2021/04/01 19:47:35;;;;;;;16.03;10.80;;;16.50;59.90;;;;;;10543330;28;20514;-76
2021/04/01 19:52:39;;;;;;;18.20;14.07;;;16.50;59.90;;;;;;10542081;28;20224;-77
2021/04/01 19:57:41;;;;;;;27.20;19.07;;;16.50;59.80;;;;;;10539041;28;20196;-78
2021/04/01 20:02:42;;;;;;;17.50;13.27;;;16.40;59.80;;;;;;10541331;28;20191;-77
2021/04/01 20:07:45;;;;;;;19.53;13.30;;;16.30;59.80;;;;;;10519536;28;20239;-78
2021/04/01 20:12:48;;;;;;;16.03;12.03;;;16.30;59.70;;;;;;10537979;28;20294;-77
2021/04/01 20:17:49;;;;;;;11.57;9.73;;;16.20;59.20;;;;;;10518484;28;20203;-76
2021/04/01 20:22:52;;;;;;;12.70;9.13;;;16.20;59.50;;;;;;10537438;28;20246;-77
2021/04/01 20:27:54;;;;;;;12.67;8.90;;;16.10;59.00;;;;;;10518215;28;20233;-76
2021/04/01 20:32:57;;;;;;;12.30;8.57;;;16.10;58.70;;;;;;10537723;28;20208;-76
2021/04/01 20:38:01;;;;;;;12.97;9.00;;;16.00;58.90;;;;;;10536379;28;20670;-77
2021/04/01 20:43:05;;;;;;;13.27;8.63;;;16.00;59.00;;;;;;10563074;22;20234;-77
2021/04/01 20:48:08;;;;;;;11.27;8.37;;;15.90;58.80;;;;;;10525373;28;20188;-77
2021/04/01 20:53:12;;;;;;;10.33;7.10;;;15.90;59.00;;;;;;10542742;28;20526;-77
2021/04/01 20:58:14;;;;;;;11.67;7.10;;;15.80;58.90;;;;;;10542780;28;20211;-77
2021/04/01 21:03:18;;;;;;;8.57;7.00;;;15.80;59.10;;;;;;10542389;28;20210;-77
2021/04/01 21:08:22;;;;;;;12.53;7.30;;;15.70;59.30;;;;;;10542421;28;20226;-77
2021/04/01 21:13:25;;;;;;;10.40;6.90;;;15.70;59.50;;;;;;10541957;28;20216;-77
2021/04/01 21:18:28;;;;;;;9.23;6.87;;;15.70;59.50;;;;;;10523702;28;20274;-77
2021/04/01 21:23:31;;;;;;;15.37;7.87;;;15.60;59.90;;;;;;10523853;28;20192;-77
2021/04/01 21:28:33;;;;;;;10.63;7.10;;;15.50;59.90;;;;;;10523422;28;20249;-77
2021/04/01 21:33:37;;;;;;;9.20;6.37;;;15.50;60.30;;;;;;10541475;28;20303;-77
2021/04/01 21:38:40;;;;;;;12.90;6.90;;;15.40;60.40;;;;;;10540469;28;20264;-77
2021/04/01 21:43:43;;;;;;;10.83;7.20;;;15.30;61.90;;;;;;10540823;28;20188;-77
2021/04/01 21:48:45;;;;;;;21.23;7.63;;;15.30;61.10;;;;;;10522125;28;20273;-77
2021/04/01 21:53:48;;;;;;;9.80;7.27;;;15.20;61.60;;;;;;10522103;28;20219;-77
2021/04/01 21:58:49;;;;;;;12.63;7.00;;;15.20;62.30;;;;;;10522018;28;20699;-77
2021/04/01 22:03:51;;;;;;;14.30;7.80;;;15.10;62.90;;;;;;10540030;28;20184;-77
2021/04/01 22:08:53;;;;;;;9.60;6.50;;;15.10;62.40;;;;;;10521979;28;20307;-77
2021/04/01 22:13:55;;;;;;;11.83;6.30;;;15.10;62.80;;;;;;10539524;28;20721;-77
2021/04/01 22:18:57;;;;;;;11.47;7.27;;;15.00;63.40;;;;;;10539252;28;20219;-77
2021/04/01 22:23:59;;;;;;;9.53;6.17;;;14.90;63.70;;;;;;10539014;28;20226;-75
2021/04/01 22:29:01;;;;;;;13.50;7.20;;;14.90;64.10;;;;;;10538728;28;20212;-76
2021/04/01 22:34:03;;;;;;;13.77;8.10;;;14.90;64.40;;;;;;10538627;28;20253;-77
2021/04/01 22:39:06;;;;;;;12.43;7.30;;;14.90;65.00;;;;;;10538325;28;20235;-77
2021/04/01 22:44:08;;;;;;;14.03;8.00;;;14.80;65.30;;;;;;10538792;28;20180;-77
2021/04/01 22:49:09;;;;;;;16.70;8.20;;;14.80;65.30;;;;;;10537899;28;20300;-77
2021/04/01 22:54:13;;;;;;;12.73;7.80;;;14.80;65.80;;;;;;10538516;28;20596;-77
2021/04/01 22:59:15;;;;;;;15.27;8.70;;;14.60;66.50;;;;;;10537919;28;20235;-77
2021/04/01 23:04:17;;;;;;;23.33;9.10;;;14.60;66.70;;;;;;10518527;28;20194;-78
2021/04/01 23:09:19;;;;;;;12.67;9.03;;;14.60;67.40;;;;;;10502319;28;20219;-77
2021/04/01 23:14:21;;;;;;;21.27;10.53;;;14.50;67.60;;;;;;10536881;28;20276;-77
2021/04/01 23:19:26;;;;;;;16.37;9.40;;;14.50;68.20;;;;;;10536859;28;20222;-77
2021/04/01 23:24:28;;;;;;;16.40;10.80;;;14.50;68.50;;;;;;10537002;28;20192;-76
2021/04/01 23:29:30;;;;;;;21.17;10.27;;;14.40;68.70;;;;;;10501889;28;20310;-77
2021/04/01 23:34:31;;;;;;;23.37;12.30;;;14.40;70.10;;;;;;10537406;28;20191;-77
2021/04/01 23:39:34;;;;;;;23.63;14.60;;;14.30;69.90;;;;;;10516374;28;20298;-77
2021/04/01 23:44:36;;;;;;;24.17;15.80;;;14.30;70.50;;;;;;10531743;28;20233;-77
2021/04/01 23:49:37;;;;;;;25.60;15.53;;;14.20;70.70;;;;;;10535888;28;20298;-77
2021/04/01 23:54:40;;;;;;;30.80;16.43;;;14.20;70.80;;;;;;10500849;28;20688;-76
2021/04/01 23:59:41;;;;;;;23.23;15.90;;;14.20;70.90;;;;;;10531650;28;20237;-77
